New Orleans, Louisiana
Traffic Map
Current Weather Conditions
New Orleans, Louisiana
Clear
Clear
25°
Feels Like: 26°
Wind Chill: 25° Ceiling: Unl
Heat Index: 26° Visibility: 10mi
Dew Point: 21° Wind: 6mph
Humidity: 78% Direction: 130° (SE)
Pressure: 29.89in Gusts: 0mph
Raw Report DataKVSH 010555Z AUTO 13005KT 10SM CLR 25/21 A2989 RMK AO1 10270 20250 54000
Traffic Incident Summary
Active as of:
Severity:
Category:
InformationThere was an issue retrieving the traffic information for this location. Please try a different location or try again shortly.
Advertisements
Track Severe Weather on mobile